Time;durP1;ratioP1;P1;durP2;ratioP2;P2;SDS_P1;SDS_P2;PMS_P1;PMS_P2;Temp;Humidity;BMP_temperature;BMP_pressure;BME280_temperature;BME280_humidity;BME280_pressure;Samples;Min_cycle;Max_cycle;Signal;HPM_P1;HPM_P2
2022/12/24 00:01:33;;;;;;;22.33;3.38;;;10.90;99.90;;;;;;5076307;28;20464;-36
2022/12/24 00:03:58;;;;;;;29.10;2.83;;;10.90;99.90;;;;;;5080491;28;20036;-32
2022/12/24 00:06:24;;;;;;;23.50;4.00;;;10.90;99.90;;;;;;5088983;28;20107;-35
2022/12/24 00:08:51;;;;;;;24.85;3.47;;;10.80;99.90;;;;;;5099332;28;20369;-36
2022/12/24 00:11:17;;;;;;;19.95;3.00;;;10.80;99.90;;;;;;5076080;28;20622;-35
2022/12/24 00:13:42;;;;;;;29.13;3.55;;;10.90;99.90;;;;;;5089238;28;20388;-36
2022/12/24 00:16:08;;;;;;;24.25;3.40;;;10.90;99.90;;;;;;5089465;28;20036;-34
2022/12/24 00:18:34;;;;;;;28.38;3.67;;;10.90;99.90;;;;;;5089659;28;20032;-35
2022/12/24 00:21:02;;;;;;;19.00;3.65;;;10.80;99.90;;;;;;5085685;28;20043;-32
2022/12/24 00:23:28;;;;;;;28.92;4.10;;;10.80;99.90;;;;;;5086242;28;20036;-36
2022/12/24 00:25:54;;;;;;;27.50;2.92;;;10.80;99.90;;;;;;5105795;28;20310;-34
2022/12/24 00:28:21;;;;;;;22.20;3.38;;;10.80;99.90;;;;;;5094368;28;20466;-34
2022/12/24 00:30:46;;;;;;;19.42;3.15;;;10.80;99.90;;;;;;5081824;28;20029;-42
2022/12/24 00:33:12;;;;;;;30.00;3.85;;;10.70;99.90;;;;;;5091747;28;20123;-34
2022/12/24 00:35:39;;;;;;;21.23;4.00;;;10.70;99.90;;;;;;5084655;28;20119;-37
2022/12/24 00:38:05;;;;;;;18.38;4.85;;;10.70;99.90;;;;;;5086246;28;20111;-38
2022/12/24 00:40:31;;;;;;;21.77;3.67;;;10.70;99.90;;;;;;5091996;28;20035;-36
2022/12/24 00:42:57;;;;;;;22.67;4.07;;;10.70;99.90;;;;;;5089631;28;20031;-32
2022/12/24 00:45:23;;;;;;;22.00;2.55;;;10.70;99.90;;;;;;5096602;28;20468;-30
2022/12/24 00:47:49;;;;;;;29.05;5.07;;;10.70;99.90;;;;;;5089022;28;20024;-34
2022/12/24 00:50:14;;;;;;;23.77;3.08;;;10.60;99.90;;;;;;5092844;28;20016;-36
2022/12/24 00:52:40;;;;;;;23.25;2.60;;;10.50;99.90;;;;;;5095591;28;20472;-31
2022/12/24 00:55:06;;;;;;;23.58;3.33;;;10.50;99.90;;;;;;5096543;28;20024;-31
2022/12/24 00:57:32;;;;;;;32.05;3.70;;;10.40;99.90;;;;;;5085700;28;20365;-33
2022/12/24 00:59:58;;;;;;;27.10;3.05;;;10.40;99.90;;;;;;5096123;28;20050;-30
2022/12/24 01:02:24;;;;;;;20.55;2.92;;;10.40;99.90;;;;;;5094539;28;20511;-36
2022/12/24 01:07:33;;;;;;;26.25;3.30;;;10.30;99.90;;;;;;5089969;28;20039;-35
2022/12/24 01:09:59;;;;;;;25.38;4.22;;;10.30;99.90;;;;;;5093531;28;20032;-33
2022/12/24 01:12:25;;;;;;;19.55;3.88;;;10.30;99.90;;;;;;5080814;28;20076;-35
2022/12/24 01:14:50;;;;;;;27.40;3.63;;;10.30;99.90;;;;;;5075896;28;20098;-34
2022/12/24 01:17:16;;;;;;;16.20;3.55;;;10.30;99.90;;;;;;5083892;28;20027;-32
2022/12/24 01:19:42;;;;;;;39.78;3.80;;;10.20;99.90;;;;;;5094843;28;20065;-39
2022/12/24 01:22:08;;;;;;;29.17;3.40;;;10.10;99.90;;;;;;5094889;28;20024;-42
2022/12/24 01:24:33;;;;;;;34.30;3.42;;;10.00;99.90;;;;;;5080864;28;20024;-34
2022/12/24 01:27:17;;;;;;;23.58;3.53;;;10.00;99.90;;;;;;5092097;28;20077;-32
2022/12/24 01:29:43;;;;;;;23.00;3.13;;;10.00;99.90;;;;;;5089245;28;20036;-31
2022/12/24 01:32:09;;;;;;;29.98;4.65;;;10.00;99.90;;;;;;5084236;28;20034;-34
2022/12/24 01:34:35;;;;;;;29.92;4.20;;;9.90;99.90;;;;;;5087232;28;20108;-33
2022/12/24 01:37:00;;;;;;;35.03;5.30;;;9.90;99.90;;;;;;5086594;28;20012;-31
2022/12/24 01:39:26;;;;;;;25.88;3.90;;;9.80;99.90;;;;;;5081902;28;20052;-32
2022/12/24 01:44:41;;;;;;;12.27;2.33;;;9.70;99.90;;;;;;5085542;28;20506;-31
2022/12/24 01:47:16;;;;;;;17.83;2.85;;;9.60;99.90;;;;;;5089136;28;20028;-33
2022/12/24 01:49:50;;;;;;;22.95;3.95;;;9.50;99.90;;;;;;5094275;28;20043;-31
2022/12/24 01:52:25;;;;;;;26.00;3.30;;;9.50;99.90;;;;;;5090506;28;20471;-33
2022/12/24 01:55:08;;;;;;;31.67;4.40;;;9.40;99.90;;;;;;5094229;28;20051;-34
2022/12/24 01:57:41;;;;;;;30.52;3.40;;;9.30;99.90;;;;;;5085430;28;20544;-35
2022/12/24 02:00:11;;;;;;;10.57;2.63;;;9.30;99.90;;;;;;5086999;28;20020;-35
2022/12/24 02:02:38;;;;;;;51.03;3.97;;;9.20;99.90;;;;;;5087018;28;20032;-30
2022/12/24 02:05:09;;;;;;;24.67;2.92;;;9.10;99.90;;;;;;5081294;28;20548;-33
2022/12/24 02:07:35;;;;;;;34.03;2.47;;;9.10;99.90;;;;;;5083802;28;20025;-33
2022/12/24 02:10:02;;;;;;;24.40;3.17;;;9.10;99.90;;;;;;5095051;28;20158;-35
2022/12/24 02:12:31;;;;;;;19.08;2.38;;;9.00;99.90;;;;;;5077269;28;20052;-34
2022/12/24 02:14:58;;;;;;;24.10;2.28;;;9.00;99.90;;;;;;5090468;28;20480;-35
2022/12/24 02:17:42;;;;;;;26.23;4.25;;;8.90;99.90;;;;;;5093403;28;20531;-37
2022/12/24 02:20:32;;;;;;;41.90;4.97;;;8.90;99.90;;;;;;5080497;28;20029;-35
2022/12/24 02:23:06;;;;;;;21.52;3.25;;;8.90;99.90;;;;;;5078133;28;20024;-34
2022/12/24 02:25:41;;;;;;;17.30;2.80;;;8.80;99.90;;;;;;5089636;28;20539;-35
2022/12/24 02:28:18;;;;;;;37.65;3.95;;;8.80;99.90;;;;;;5074748;28;20513;-34
2022/12/24 02:30:52;;;;;;;23.30;2.90;;;8.80;99.90;;;;;;5084175;28;20032;-37
2022/12/24 02:33:43;;;;;;;34.70;3.10;;;8.80;99.90;;;;;;5092599;28;20024;-34
2022/12/24 02:36:24;;;;;;;22.85;3.58;;;8.80;99.90;;;;;;5094842;28;20500;-35
2022/12/24 02:38:59;;;;;;;22.60;3.22;;;8.80;99.90;;;;;;5094501;28;20483;-37
2022/12/24 02:42:04;;;;;;;30.30;3.25;;;8.70;99.90;;;;;;5093815;28;20040;-35
2022/12/24 02:44:16;;;;;;;23.98;3.85;;;8.70;99.90;;;;;;5088746;28;20058;-35
2022/12/24 02:46:41;;;;;;;27.90;3.17;;;8.70;99.90;;;;;;5089529;28;20544;-43
2022/12/24 02:49:07;;;;;;;27.00;4.72;;;8.70;99.90;;;;;;5079452;28;20029;-41
2022/12/24 02:51:33;;;;;;;28.50;2.95;;;8.80;99.90;;;;;;5073082;28;20036;-42
2022/12/24 02:53:59;;;;;;;27.80;3.63;;;8.80;99.90;;;;;;5083957;28;20028;-46
2022/12/24 02:56:43;;;;;;;31.50;4.30;;;8.80;99.90;;;;;;5094391;28;20020;-42
2022/12/24 02:59:20;;;;;;;19.17;2.47;;;8.90;99.90;;;;;;5094323;28;20024;-44
2022/12/24 03:02:07;;;;;;;24.33;3.08;;;8.80;99.90;;;;;;5087281;28;20387;-42
2022/12/24 03:04:56;;;;;;;32.00;3.70;;;8.90;99.90;;;;;;5092732;28;20522;-41
2022/12/24 03:07:37;;;;;;;22.08;2.88;;;9.00;99.90;;;;;;5087593;28;20028;-43
2022/12/24 03:10:08;;;;;;;17.38;2.80;;;9.00;99.90;;;;;;5091640;28;20568;-42
2022/12/24 03:12:45;;;;;;;29.67;2.80;;;9.10;99.90;;;;;;5092362;28;20048;-43
2022/12/24 03:15:14;;;;;;;38.00;3.03;;;9.10;99.90;;;;;;5091975;28;20500;-42
2022/12/24 03:17:42;;;;;;;13.93;2.42;;;9.10;99.90;;;;;;5077034;28;20329;-43
2022/12/24 03:20:10;;;;;;;25.45;4.22;;;9.20;99.90;;;;;;5073685;28;20416;-44
2022/12/24 03:22:36;;;;;;;;;;;9.20;99.90;;;;;;5079649;28;20060;-41
2022/12/24 03:25:03;;;;;;;22.58;2.72;;;9.20;99.90;;;;;;5082907;28;19927;-41
2022/12/24 03:27:31;;;;;;;25.67;1.90;;;9.20;99.90;;;;;;5091832;28;20522;-37
2022/12/24 03:29:57;;;;;;;31.65;3.40;;;9.20;99.90;;;;;;5092173;28;20024;-37
2022/12/24 03:32:27;;;;;;;20.92;3.80;;;9.20;99.90;;;;;;5091533;28;20120;-34
2022/12/24 03:34:53;;;;;;;17.55;2.80;;;9.30;99.90;;;;;;5092834;28;20027;-37
2022/12/24 03:37:19;;;;;;;27.80;3.58;;;9.30;99.90;;;;;;5087911;28;20480;-34
2022/12/24 03:39:44;;;;;;;26.60;3.40;;;9.40;99.90;;;;;;5089754;28;20040;-35
2022/12/24 03:42:10;;;;;;;17.77;2.83;;;9.40;99.90;;;;;;5091321;28;20035;-36
2022/12/24 03:44:35;;;;;;;20.30;2.95;;;9.40;99.90;;;;;;5073928;28;20028;-45
2022/12/24 03:47:01;;;;;;;27.27;3.92;;;9.50;99.90;;;;;;5089579;28;20140;-42
2022/12/24 03:49:27;;;;;;;36.50;3.50;;;9.60;99.90;;;;;;5092065;28;20024;-48
2022/12/24 03:51:52;;;;;;;28.13;4.32;;;9.60;99.90;;;;;;5093223;28;20020;-45
2022/12/24 03:54:18;;;;;;;25.20;3.47;;;9.70;99.90;;;;;;5084051;28;20021;-43
2022/12/24 03:56:43;;;;;;;28.67;3.58;;;9.70;99.90;;;;;;5077648;28;20067;-42
2022/12/24 03:59:09;;;;;;;30.92;4.18;;;9.80;99.90;;;;;;5072971;28;20024;-42
2022/12/24 04:01:35;;;;;;;32.13;4.70;;;9.80;99.90;;;;;;5084598;28;20051;-43
2022/12/24 04:04:01;;;;;;;41.58;4.53;;;9.90;99.90;;;;;;5093334;28;20081;-43
2022/12/24 04:06:26;;;;;;;31.08;5.10;;;9.90;99.90;;;;;;5093376;28;20051;-43
2022/12/24 04:08:52;;;;;;;34.80;4.95;;;9.90;99.90;;;;;;5092412;28;20107;-42
2022/12/24 04:11:18;;;;;;;26.30;3.90;;;9.90;99.90;;;;;;5092104;28;20115;-43
2022/12/24 04:13:44;;;;;;;43.38;5.90;;;9.90;99.90;;;;;;5091755;28;20044;-43
2022/12/24 04:16:13;;;;;;;30.55;3.15;;;10.00;99.90;;;;;;5078979;28;20074;-41
2022/12/24 04:18:39;;;;;;;31.15;4.57;;;10.00;99.90;;;;;;5071682;28;20020;-42
2022/12/24 04:21:06;;;;;;;39.95;4.43;;;10.00;99.90;;;;;;5079429;28;20487;-39
2022/12/24 04:23:35;;;;;;;26.20;3.78;;;10.00;99.90;;;;;;5092893;28;20047;-45
2022/12/24 04:26:02;;;;;;;25.70;4.13;;;10.00;99.90;;;;;;5093164;28;20024;-45
2022/12/24 04:28:29;;;;;;;21.02;3.92;;;10.00;99.90;;;;;;5093048;28;20036;-42
2022/12/24 04:31:06;;;;;;;35.03;3.20;;;10.00;99.90;;;;;;5089091;28;20028;-44
2022/12/24 04:33:32;;;;;;;32.42;3.55;;;9.90;99.90;;;;;;5074646;28;20439;-42
2022/12/24 04:36:00;;;;;;;19.60;3.20;;;10.00;99.90;;;;;;5088079;28;20472;-42
2022/12/24 04:38:26;;;;;;;20.00;3.15;;;9.90;99.90;;;;;;5090877;28;20565;-41
2022/12/24 04:41:04;;;;;;;38.17;3.10;;;10.00;99.90;;;;;;5089511;28;20080;-41
2022/12/24 04:43:30;;;;;;;;;;;10.00;99.90;;;;;;5073071;28;20071;-42
2022/12/24 04:45:56;;;;;;;27.80;4.53;;;10.00;99.90;;;;;;5078901;28;19908;-42
2022/12/24 04:48:21;;;;;;;30.23;3.00;;;10.00;99.90;;;;;;5085632;28;20031;-36
2022/12/24 04:53:32;;;;;;;33.35;3.40;;;10.00;99.90;;;;;;5079618;28;20071;-43
2022/12/24 04:55:58;;;;;;;29.13;3.78;;;10.00;99.90;;;;;;5073795;28;20488;-37
2022/12/24 04:58:24;;;;;;;18.98;3.97;;;10.00;99.90;;;;;;5080149;28;20064;-44
2022/12/24 05:00:50;;;;;;;28.65;3.00;;;10.10;99.90;;;;;;5075403;28;20764;-37
2022/12/24 05:03:15;;;;;;;24.17;3.63;;;10.10;99.90;;;;;;5084308;28;20076;-34
2022/12/24 05:05:41;;;;;;;21.17;2.90;;;10.10;99.90;;;;;;5091891;28;20028;-36
2022/12/24 05:08:07;;;;;;;30.23;3.92;;;10.10;99.90;;;;;;5091653;28;20020;-35
2022/12/24 05:10:32;;;;;;;27.98;3.35;;;10.10;99.90;;;;;;5088868;28;20384;-42
2022/12/24 05:12:58;;;;;;;24.48;3.80;;;10.10;99.90;;;;;;5091787;28;20048;-39
2022/12/24 05:15:24;;;;;;;10.98;2.78;;;10.10;99.90;;;;;;5094721;28;20025;-39
2022/12/24 05:17:50;;;;;;;25.27;3.63;;;10.20;99.90;;;;;;5094204;28;20103;-41
2022/12/24 05:20:16;;;;;;;30.55;2.72;;;10.20;99.90;;;;;;5088639;28;20048;-45
2022/12/24 05:28:16;;;;;;;25.90;3.33;;;10.30;99.90;;;;;;5096008;28;20036;-42
2022/12/24 05:30:42;;;;;;;27.30;2.88;;;10.20;99.90;;;;;;5095082;28;20028;-46
2022/12/24 05:33:08;;;;;;;26.45;4.60;;;10.20;99.90;;;;;;5095116;28;20028;-40
2022/12/24 05:35:34;;;;;;;22.10;3.53;;;10.30;99.90;;;;;;5094462;28;20430;-44
2022/12/24 05:37:59;;;;;;;32.15;3.33;;;10.40;99.90;;;;;;5087910;28;20499;-43
2022/12/24 05:40:25;;;;;;;42.40;4.43;;;10.40;99.90;;;;;;5091608;28;20086;-43
2022/12/24 05:42:51;;;;;;;29.88;3.95;;;10.40;99.90;;;;;;5077778;28;20024;-44
2022/12/24 05:45:16;;;;;;;34.75;3.95;;;10.40;99.90;;;;;;5077006;28;20081;-40
2022/12/24 05:47:42;;;;;;;38.58;4.43;;;10.40;99.90;;;;;;5086164;28;20106;-40
2022/12/24 05:50:08;;;;;;;26.42;3.92;;;10.30;99.90;;;;;;5095919;28;20519;-40
2022/12/24 05:52:34;;;;;;;36.90;4.18;;;10.30;99.90;;;;;;5094673;28;20541;-38
2022/12/24 05:55:00;;;;;;;40.47;3.60;;;10.30;99.90;;;;;;5088526;28;20044;-40
2022/12/24 05:57:25;;;;;;;29.33;5.18;;;10.30;99.90;;;;;;5076938;28;20036;-40
2022/12/24 05:59:51;;;;;;;36.47;3.88;;;10.30;99.90;;;;;;5075062;28;20396;-40
2022/12/24 06:02:17;;;;;;;30.05;2.83;;;10.30;99.90;;;;;;5088006;28;20480;-40
2022/12/24 06:04:42;;;;;;;31.73;3.97;;;10.30;99.90;;;;;;5090182;28;20035;-40
2022/12/24 06:07:08;;;;;;;31.42;3.72;;;10.30;99.90;;;;;;5079871;28;20496;-41
2022/12/24 06:09:33;;;;;;;42.90;4.57;;;10.30;99.90;;;;;;5080811;28;20161;-41
2022/12/24 06:11:59;;;;;;;44.67;5.35;;;10.30;99.90;;;;;;5078768;28;20054;-39
2022/12/24 06:14:25;;;;;;;36.97;4.47;;;10.20;99.90;;;;;;5093098;28;20031;-41
2022/12/24 06:16:51;;;;;;;38.97;4.38;;;10.20;99.90;;;;;;5087435;28;20035;-39
2022/12/24 06:19:16;;;;;;;39.65;4.10;;;10.20;99.90;;;;;;5094451;28;20027;-39
2022/12/24 06:21:42;;;;;;;38.40;5.25;;;10.30;99.90;;;;;;5083438;28;20035;-37
2022/12/24 06:24:08;;;;;;;30.98;3.97;;;10.20;99.90;;;;;;5089729;28;20427;-41
2022/12/24 06:26:33;;;;;;;58.40;6.55;;;10.20;99.90;;;;;;5092875;28;20036;-40
2022/12/24 06:28:59;;;;;;;38.60;3.83;;;10.20;99.90;;;;;;5086540;28;20034;-41
2022/12/24 06:31:24;;;;;;;30.15;5.32;;;10.20;99.90;;;;;;5089707;28;20043;-40
2022/12/24 06:33:51;;;;;;;36.63;3.63;;;10.30;99.90;;;;;;5085094;28;20417;-39
2022/12/24 06:36:22;;;;;;;45.55;5.70;;;10.30;99.90;;;;;;5094667;28;20021;-39
2022/12/24 06:38:48;;;;;;;40.33;4.68;;;10.30;99.90;;;;;;5094701;28;20016;-32
2022/12/24 06:41:15;;;;;;;50.70;4.70;;;10.30;99.90;;;;;;5084710;28;20451;-34
2022/12/24 06:43:45;;;;;;;23.48;3.17;;;10.30;99.90;;;;;;5089289;28;20036;-41
2022/12/24 06:46:11;;;;;;;41.97;4.75;;;10.40;99.90;;;;;;5083028;28;20059;-39
2022/12/24 06:48:36;;;;;;;45.75;4.47;;;10.40;99.90;;;;;;5077929;28;20063;-42
2022/12/24 06:51:03;;;;;;;28.63;4.20;;;10.30;99.90;;;;;;5074117;28;20039;-40
2022/12/24 06:53:29;;;;;;;46.97;4.95;;;10.40;99.90;;;;;;5079527;28;20027;-43
2022/12/24 06:56:06;;;;;;;51.55;5.22;;;10.30;99.90;;;;;;5094274;28;20059;-43
2022/12/24 06:58:33;;;;;;;56.30;6.80;;;10.40;99.90;;;;;;5093262;28;20028;-43
2022/12/24 07:01:01;;;;;;;33.40;5.22;;;10.30;99.90;;;;;;5091661;28;20476;-39
2022/12/24 07:03:27;;;;;;;43.60;4.78;;;10.30;99.90;;;;;;5093421;28;20024;-40
2022/12/24 07:05:53;;;;;;;35.58;3.95;;;10.20;99.90;;;;;;5092423;28;20095;-41
2022/12/24 07:08:19;;;;;;;31.55;4.45;;;10.30;99.90;;;;;;5088222;28;20217;-40
2022/12/24 07:10:44;;;;;;;33.10;5.00;;;10.20;99.90;;;;;;5093942;28;20028;-44
2022/12/24 07:13:10;;;;;;;31.23;4.93;;;10.20;99.90;;;;;;5092666;28;20075;-42
2022/12/24 07:15:36;;;;;;;39.85;4.03;;;10.10;99.90;;;;;;5092339;28;20488;-40
2022/12/24 07:18:01;;;;;;;26.23;3.72;;;10.10;99.90;;;;;;5093431;28;20028;-40
2022/12/24 07:20:27;;;;;;;19.80;4.18;;;10.00;99.90;;;;;;5087839;28;20036;-43
2022/12/24 07:22:52;;;;;;;35.88;5.22;;;10.00;99.90;;;;;;5073287;28;20112;-43
2022/12/24 07:25:18;;;;;;;44.83;4.63;;;10.00;99.90;;;;;;5090930;28;20396;-41
2022/12/24 07:27:44;;;;;;;40.47;3.92;;;9.90;99.90;;;;;;5092849;28;20027;-42
2022/12/24 07:30:10;;;;;;;36.30;4.22;;;9.90;99.90;;;;;;5089753;28;20024;-34
2022/12/24 07:32:36;;;;;;;35.28;4.25;;;9.80;99.90;;;;;;5088724;28;20112;-35
2022/12/24 07:35:02;;;;;;;39.13;4.40;;;9.90;99.90;;;;;;5082285;28;20047;-41
2022/12/24 07:37:27;;;;;;;34.90;4.13;;;9.80;99.90;;;;;;5080236;28;20032;-37
2022/12/24 07:39:53;;;;;;;37.45;4.40;;;9.80;99.90;;;;;;5073166;28;20036;-38
2022/12/24 07:42:19;;;;;;;34.97;4.70;;;9.90;99.90;;;;;;5091465;28;20028;-33
2022/12/24 07:44:44;;;;;;;51.15;4.72;;;9.80;99.90;;;;;;5092595;28;20028;-37
2022/12/24 07:47:10;;;;;;;47.15;5.38;;;9.80;99.90;;;;;;5083836;28;20052;-40
2022/12/24 07:49:36;;;;;;;34.30;5.90;;;9.80;99.90;;;;;;5089150;28;20024;-42
2022/12/24 07:52:03;;;;;;;39.67;3.75;;;9.80;99.90;;;;;;5092824;28;20078;-38
2022/12/24 07:54:28;;;;;;;49.92;5.63;;;9.80;99.90;;;;;;5090476;28;20042;-41
2022/12/24 07:56:54;;;;;;;36.63;4.80;;;9.90;99.90;;;;;;5081555;28;20410;-42
2022/12/24 07:59:20;;;;;;;30.92;4.20;;;9.80;99.90;;;;;;5093229;28;20024;-41
2022/12/24 08:01:46;;;;;;;45.85;5.45;;;9.80;99.90;;;;;;5088399;28;20491;-45
2022/12/24 08:04:11;;;;;;;30.17;3.83;;;9.80;99.90;;;;;;5091680;28;20020;-46
2022/12/24 08:06:37;;;;;;;36.33;4.00;;;9.90;99.90;;;;;;5092743;28;20024;-42
2022/12/24 08:09:03;;;;;;;27.80;4.90;;;9.90;99.90;;;;;;5080180;28;20544;-42
2022/12/24 08:11:29;;;;;;;42.42;4.03;;;9.80;99.90;;;;;;5084786;28;20569;-42
2022/12/24 08:13:55;;;;;;;39.05;4.20;;;9.80;99.90;;;;;;5092801;28;20040;-41
2022/12/24 08:16:20;;;;;;;30.42;4.30;;;9.90;99.90;;;;;;5092576;28;20032;-40
2022/12/24 08:18:46;;;;;;;54.17;4.15;;;9.80;99.90;;;;;;5092916;28;20028;-41
2022/12/24 08:21:11;;;;;;;33.80;5.43;;;9.80;99.90;;;;;;5090338;28;20557;-39
2022/12/24 08:23:37;;;;;;;26.98;5.07;;;9.80;99.90;;;;;;5088359;28;20111;-40
2022/12/24 08:26:06;;;;;;;33.47;5.13;;;9.90;99.90;;;;;;5093174;28;20063;-41
2022/12/24 08:28:32;;;;;;;33.40;4.88;;;9.90;99.90;;;;;;5084662;28;20511;-41
2022/12/24 08:30:58;;;;;;;30.63;4.40;;;9.90;99.90;;;;;;5072607;28;20036;-45
2022/12/24 08:33:24;;;;;;;34.03;4.18;;;9.90;99.90;;;;;;5072678;28;20483;-41
2022/12/24 08:35:52;;;;;;;31.63;5.45;;;10.00;99.90;;;;;;5073106;28;20020;-42
2022/12/24 08:38:18;;;;;;;32.53;4.05;;;10.00;99.90;;;;;;5086644;28;20062;-47
2022/12/24 08:40:47;;;;;;;44.08;3.88;;;10.00;99.90;;;;;;5104758;28;20035;-41
2022/12/24 08:43:13;;;;;;;32.60;4.78;;;10.00;99.90;;;;;;5092384;28;20499;-43
2022/12/24 08:45:39;;;;;;;50.42;5.03;;;10.10;99.90;;;;;;5090447;28;20051;-41
2022/12/24 08:48:06;;;;;;;38.20;4.10;;;10.10;99.90;;;;;;5094862;28;20509;-41
2022/12/24 08:50:32;;;;;;;37.88;3.70;;;10.20;99.90;;;;;;5094424;28;21001;-44
2022/12/24 08:52:58;;;;;;;36.38;4.38;;;10.20;99.90;;;;;;5095686;28;20035;-40
2022/12/24 08:55:24;;;;;;;40.03;5.65;;;10.20;99.90;;;;;;5096179;28;20487;-42
2022/12/24 08:57:50;;;;;;;34.97;4.97;;;10.30;99.90;;;;;;5083160;28;20020;-40
2022/12/24 09:00:16;;;;;;;39.33;5.22;;;10.30;99.90;;;;;;5082679;28;20024;-42
2022/12/24 09:02:42;;;;;;;43.13;4.75;;;10.40;99.90;;;;;;5081596;28;20024;-40
2022/12/24 09:05:07;;;;;;;28.58;3.90;;;10.40;99.90;;;;;;5076892;28;20480;-41
2022/12/24 09:07:33;;;;;;;34.80;4.18;;;10.50;99.90;;;;;;5095289;28;20430;-40
2022/12/24 09:09:59;;;;;;;25.13;4.40;;;10.60;99.90;;;;;;5092153;28;20030;-41
2022/12/24 09:12:24;;;;;;;29.88;3.97;;;10.70;99.90;;;;;;5091625;28;20395;-40
2022/12/24 09:14:51;;;;;;;41.00;5.15;;;10.70;99.90;;;;;;5085649;28;20028;-40
2022/12/24 09:17:16;;;;;;;34.22;5.82;;;10.70;99.90;;;;;;5089534;28;20020;-35
2022/12/24 09:19:42;;;;;;;34.45;4.20;;;10.70;99.90;;;;;;5093327;28;20432;-40
2022/12/24 09:22:08;;;;;;;31.50;3.80;;;10.80;99.90;;;;;;5096207;28;20108;-40
2022/12/24 09:24:35;;;;;;;28.83;4.13;;;10.80;99.90;;;;;;5096131;28;20032;-41
2022/12/24 09:27:01;;;;;;;39.08;6.00;;;10.80;99.90;;;;;;5077759;28;20492;-44
2022/12/24 09:29:27;;;;;;;31.85;3.38;;;10.80;99.90;;;;;;5078418;28;20027;-41
2022/12/24 09:31:54;;;;;;;23.27;4.32;;;10.90;99.90;;;;;;5091084;28;20545;-43
2022/12/24 09:34:19;;;;;;;29.67;5.13;;;10.90;99.90;;;;;;5084775;28;20073;-48
2022/12/24 09:36:45;;;;;;;38.28;4.85;;;10.90;99.90;;;;;;5089904;28;20476;-42
2022/12/24 09:39:11;;;;;;;38.88;4.32;;;11.00;99.90;;;;;;5094482;28;20495;-42
2022/12/24 09:41:46;;;;;;;23.35;4.15;;;11.00;99.90;;;;;;5084742;28;20021;-41
2022/12/24 09:44:35;;;;;;;32.30;3.80;;;11.00;99.90;;;;;;5079195;28;20491;-42
2022/12/24 09:47:08;;;;;;;31.02;4.47;;;11.10;99.90;;;;;;5076820;28;20400;-53
2022/12/24 09:49:41;;;;;;;28.45;4.95;;;11.10;99.90;;;;;;5084583;28;20078;-34
2022/12/24 09:52:13;;;;;;;18.63;4.10;;;11.10;99.90;;;;;;5085407;28;20441;-32
2022/12/24 09:54:46;;;;;;;30.17;4.00;;;11.10;99.90;;;;;;5076239;28;20024;-31
2022/12/24 09:57:19;;;;;;;19.23;2.67;;;11.00;99.90;;;;;;5084127;28;20028;-35
2022/12/24 09:59:46;;;;;;;35.92;4.07;;;11.00;99.90;;;;;;5079418;28;20062;-31
2022/12/24 10:02:17;;;;;;;34.20;5.22;;;11.10;99.90;;;;;;5095357;28;20416;-36
2022/12/24 10:04:44;;;;;;;26.85;5.20;;;11.20;99.90;;;;;;5093895;28;20544;-33
2022/12/24 10:07:35;;;;;;;39.40;4.40;;;11.20;99.90;;;;;;5088333;28;20090;-35
2022/12/24 10:10:01;;;;;;;30.05;3.17;;;11.30;99.90;;;;;;5075216;28;20485;-31
2022/12/24 10:12:38;;;;;;;20.85;3.22;;;11.30;99.90;;;;;;5083539;28;20040;-37
2022/12/24 10:15:19;;;;;;;29.52;5.70;;;11.30;99.90;;;;;;5080374;28;20031;-39
2022/12/24 10:18:03;;;;;;;42.92;5.22;;;11.30;99.90;;;;;;5088361;28;20031;-35
2022/12/24 10:20:46;;;;;;;38.95;4.07;;;11.30;99.90;;;;;;5089218;28;20027;-37
2022/12/24 10:23:54;;;;;;;33.70;3.95;;;11.40;99.90;;;;;;5075777;28;20056;-40
2022/12/24 10:26:22;;;;;;;;;;;11.50;99.90;;;;;;5076395;28;20036;-39
2022/12/24 10:28:56;;;;;;;19.45;2.95;;;11.60;99.90;;;;;;5077353;28;20387;-37
2022/12/24 10:31:26;;;;;;;25.13;3.28;;;11.60;99.90;;;;;;5080196;28;20032;-35
2022/12/24 10:34:00;;;;;;;36.47;4.82;;;11.60;99.90;;;;;;5093702;28;20361;-34
2022/12/24 10:36:30;;;;;;;23.67;4.20;;;11.60;99.90;;;;;;5081623;28;20034;-37
2022/12/24 10:38:56;;;;;;;38.05;4.45;;;11.70;99.90;;;;;;5082143;28;20040;-35
2022/12/24 10:41:25;;;;;;;29.02;4.03;;;11.70;99.90;;;;;;5074609;28;20034;-34
2022/12/24 10:43:51;;;;;;;28.35;3.90;;;11.60;99.90;;;;;;5088699;28;20032;-35
2022/12/24 10:46:31;;;;;;;28.08;4.20;;;11.60;99.90;;;;;;5080063;28;20488;-38
2022/12/24 10:49:04;;;;;;;30.27;4.18;;;11.60;99.90;;;;;;5074363;28;20472;-32
2022/12/24 10:51:51;;;;;;;37.03;3.85;;;11.70;99.90;;;;;;5083171;28;20442;-33
2022/12/24 10:54:19;;;;;;;33.50;3.20;;;11.70;99.90;;;;;;5094261;28;20024;-36
2022/12/24 10:56:51;;;;;;;25.33;3.17;;;11.80;99.90;;;;;;5089229;28;20539;-43
2022/12/24 10:59:26;;;;;;;30.02;3.10;;;11.80;99.90;;;;;;5077284;28;20491;-37
2022/12/24 11:01:52;;;;;;;17.65;3.03;;;11.80;99.90;;;;;;5085848;28;20034;-32
2022/12/24 11:04:21;;;;;;;20.80;3.90;;;11.80;99.90;;;;;;5079522;28;20043;-32
2022/12/24 11:07:03;;;;;;;48.03;4.32;;;11.80;99.90;;;;;;5093269;28;20492;-37
2022/12/24 11:09:42;;;;;;;37.78;4.13;;;11.70;99.90;;;;;;5075405;28;20039;-37
2022/12/24 11:12:21;;;;;;;25.98;3.83;;;11.70;99.90;;;;;;5080600;28;20423;-35
2022/12/24 11:14:48;;;;;;;19.23;2.67;;;11.70;99.90;;;;;;5088608;28;20373;-33
2022/12/24 11:17:22;;;;;;;25.95;4.53;;;11.60;99.90;;;;;;5075372;28;20024;-38
2022/12/24 11:19:49;;;;;;;19.77;3.80;;;11.60;99.90;;;;;;5085723;28;20483;-36
2022/12/24 11:22:25;;;;;;;36.43;3.53;;;11.60;99.90;;;;;;5086221;28;20024;-35
2022/12/24 11:25:19;;;;;;;30.48;4.53;;;11.50;99.90;;;;;;5078763;28;20024;-36
2022/12/24 11:27:49;;;;;;;16.48;2.60;;;11.60;99.90;;;;;;5084877;28;20088;-35
2022/12/24 11:30:14;;;;;;;16.38;2.17;;;11.50;99.90;;;;;;5077524;28;20041;-31
2022/12/24 11:32:43;;;;;;;20.73;3.13;;;11.40;99.90;;;;;;5082684;28;20032;-38
2022/12/24 11:35:30;;;;;;;23.95;3.67;;;11.40;99.90;;;;;;5082901;28;20024;-37
2022/12/24 11:37:59;;;;;;;;;;;11.30;99.90;;;;;;5087955;28;20059;-39
2022/12/24 11:40:30;;;;;;;9.70;2.75;;;11.30;99.90;;;;;;5083553;28;20379;-35
2022/12/24 11:43:00;;;;;;;36.22;4.40;;;11.20;99.90;;;;;;5083311;28;20395;-37
2022/12/24 11:45:28;;;;;;;21.55;3.70;;;11.20;99.90;;;;;;5088888;28;20117;-38
2022/12/24 11:47:55;;;;;;;27.98;4.63;;;11.20;99.90;;;;;;5091205;28;20077;-37
2022/12/24 11:50:24;;;;;;;18.50;3.17;;;11.20;99.90;;;;;;5090625;28;20500;-33
2022/12/24 11:53:01;;;;;;;29.33;3.90;;;11.20;99.90;;;;;;5091337;28;20480;-33
2022/12/24 11:55:54;;;;;;;19.77;2.92;;;11.20;99.90;;;;;;5092432;28;20373;-37
2022/12/24 11:58:42;;;;;;;19.92;4.65;;;11.20;99.90;;;;;;5083244;28;20032;-37
2022/12/24 12:01:16;;;;;;;21.25;2.97;;;11.20;99.90;;;;;;5093428;28;20476;-34
2022/12/24 12:03:55;;;;;;;15.77;3.22;;;11.30;99.90;;;;;;5085479;28;20028;-35
2022/12/24 12:06:36;;;;;;;18.67;2.50;;;11.30;99.90;;;;;;5072917;28;20496;-35
2022/12/24 12:09:06;;;;;;;22.17;2.83;;;11.30;99.90;;;;;;5072907;28;20032;-38
2022/12/24 12:11:33;;;;;;;22.77;2.65;;;11.20;99.90;;;;;;5077014;28;20525;-35
2022/12/24 12:14:02;;;;;;;21.70;3.05;;;11.30;99.90;;;;;;5091068;28;20509;-34
2022/12/24 12:16:59;;;;;;;16.48;2.58;;;11.40;99.90;;;;;;5092869;28;20024;-36
2022/12/24 12:19:27;;;;;;;28.50;2.27;;;11.50;99.90;;;;;;5092862;28;20024;-39
2022/12/24 12:21:53;;;;;;;23.63;3.53;;;11.40;99.90;;;;;;5084891;28;20020;-36
2022/12/24 12:24:24;;;;;;;30.95;4.15;;;11.40;99.90;;;;;;5086793;28;20495;-39
2022/12/24 12:27:09;;;;;;;13.05;2.10;;;11.30;99.90;;;;;;5091347;28;20016;-38
2022/12/24 12:29:43;;;;;;;19.98;2.72;;;11.30;99.90;;;;;;5090476;28;20032;-43
2022/12/24 12:32:35;;;;;;;18.63;2.85;;;11.30;99.90;;;;;;5080038;28;22167;-42
2022/12/24 12:35:14;;;;;;;16.50;2.55;;;11.40;99.90;;;;;;5079544;28;20036;-35
2022/12/24 12:37:51;;;;;;;20.17;2.55;;;11.50;99.90;;;;;;5077871;28;20552;-39
2022/12/24 12:40:17;;;;;;;39.17;4.20;;;11.50;99.90;;;;;;5092759;28;20641;-37
2022/12/24 12:43:00;;;;;;;21.50;2.33;;;11.50;99.90;;;;;;5079954;28;20032;-33
2022/12/24 12:45:50;;;;;;;22.33;3.10;;;11.50;99.90;;;;;;5078312;28;20028;-36
2022/12/24 12:48:41;;;;;;;14.18;2.15;;;11.50;99.90;;;;;;5083589;28;20077;-35
2022/12/24 12:51:14;;;;;;;34.28;3.85;;;11.50;99.90;;;;;;5086652;28;20076;-37
2022/12/24 12:53:44;;;;;;;15.68;2.70;;;11.60;99.90;;;;;;5076451;28;20515;-47
2022/12/24 12:56:29;;;;;;;21.00;2.92;;;11.40;99.90;;;;;;5076420;28;20016;-40
2022/12/24 12:59:00;;;;;;;21.73;2.95;;;11.50;99.90;;;;;;5084936;28;20526;-41
2022/12/24 13:04:55;;;;;;;15.13;2.42;;;11.40;99.90;;;;;;5080472;28;20042;-39
2022/12/24 13:07:50;;;;;;;17.33;2.35;;;11.50;99.90;;;;;;5090585;28;20031;-39
2022/12/24 13:10:59;;;;;;;22.83;2.95;;;11.50;99.90;;;;;;5085248;28;20036;-39